Weather at Air Harbor Airport

Public forecast

Using degrees Fahrenheit for public forecast. Weather courtesy of forecast.io.

Closest aviation weather report (METAR) to Air Harbor Airport

Closest report is Piedmont Triad International Airport, 7.9 nm (14.7 km) SW. Retrieved 2021/07/31 21:54 UTC (11 minutes ago):

KGSO 312154Z 00000KT 7SM SCT050 BKN250 31/18 A2994 RMK AO2 SLP124 T03060183

Closest aviation forecast (TAF) to Air Harbor Airport

Closest forecast is Piedmont Triad International Airport, 7.9 nm (14.7 km) SW. Retrieved 2021/07/31 18:42 UTC (3 hours ago):

TAF KGSO 311740Z 3118/0118 VRB05KT P6SM SCT250 FM010400 VRB04KT P6SM BKN200 FM011700 30008KT P6SM FEW050 BKN250